Terminal Aerodrome Forecast
Issued by NWS

Home | Current Version | Previous Version | Text Only | Print | Product List | Glossary On
Versions: 1 2 3 4 5 6 7 8 9 10 11 12 13 14 15 16 17
000
FTAK31 PANC 241529 AAA
TAFAEN
TAF AMD
PAEN 241529Z 2415/2512 11005KT 6SM -RA OVC035
      TEMPO 2415/2418 6SM -RA OVC020
     FM241800 16008KT 6SM -RA OVC020
     FM250000 20017G24KT P6SM -SHRA FEW025 BKN035
     FM250500 19023G31KT P6SM -SHRA SCT025 BKN035=

USA.gov is the U.S. government's official web portal to all federal, state and local government web resources and services.